createdAt,value
2022-12-24T00:01:43.820Z,87.59
2022-12-24T00:04:10.810Z,87.51
2022-12-24T00:06:37.594Z,87.13
2022-12-24T00:09:04.593Z,87.29
2022-12-24T00:11:31.604Z,86.86
2022-12-24T00:13:59.721Z,87.33
2022-12-24T00:16:26.783Z,86.11
2022-12-24T00:18:53.782Z,85.47
2022-12-24T00:21:20.735Z,86.04
2022-12-24T00:23:47.517Z,86.32
2022-12-24T00:26:14.963Z,86.72
2022-12-24T00:28:42.612Z,86.13
2022-12-24T00:31:16.455Z,87.50
2022-12-24T00:33:43.517Z,88.32
2022-12-24T00:36:10.397Z,88.50
2022-12-24T00:38:38.000Z,88.25
2022-12-24T00:41:08.570Z,88.66
2022-12-24T00:43:35.437Z,88.74
2022-12-24T00:46:02.256Z,88.33
2022-12-24T00:48:30.488Z,88.13
2022-12-24T00:50:57.296Z,87.43
2022-12-24T00:53:24.454Z,87.42
2022-12-24T00:55:51.446Z,87.39
2022-12-24T00:58:18.254Z,87.17
2022-12-24T01:00:45.297Z,87.60
2022-12-24T01:03:12.256Z,86.36
2022-12-24T01:05:40.533Z,84.81
2022-12-24T01:08:07.284Z,84.06
2022-12-24T01:10:34.125Z,83.32
2022-12-24T01:13:02.220Z,83.44
2022-12-24T01:15:29.565Z,83.55
2022-12-24T01:17:56.656Z,84.67
2022-12-24T01:20:23.719Z,84.96
2022-12-24T01:22:52.143Z,85.09
2022-12-24T01:25:18.859Z,86.00
2022-12-24T01:27:45.712Z,86.21
2022-12-24T01:30:14.247Z,85.98
2022-12-24T01:32:41.041Z,85.37
2022-12-24T01:35:09.544Z,87.01
2022-12-24T01:37:36.594Z,86.02
2022-12-24T01:40:07.424Z,86.67
2022-12-24T01:42:34.217Z,86.65
2022-12-24T01:45:42.390Z,87.22
2022-12-24T01:48:21.111Z,86.72
2022-12-24T01:50:53.752Z,87.12
2022-12-24T01:53:20.852Z,87.60
2022-12-24T01:55:50.701Z,87.79
2022-12-24T01:58:23.970Z,88.03
2022-12-24T02:00:53.900Z,87.27
2022-12-24T02:03:21.512Z,87.41
2022-12-24T02:05:52.665Z,87.06
2022-12-24T02:08:20.156Z,87.59
2022-12-24T02:10:50.383Z,87.46
2022-12-24T02:13:20.958Z,86.93
2022-12-24T02:16:08.631Z,86.85
2022-12-24T02:18:49.697Z,87.44
2022-12-24T02:21:51.718Z,86.51
2022-12-24T02:24:41.407Z,86.30
2022-12-24T02:27:21.091Z,85.93
2022-12-24T02:30:14.551Z,85.80
2022-12-24T02:33:11.286Z,85.81
2022-12-24T02:35:50.179Z,85.13
2022-12-24T02:38:25.688Z,85.18
2022-12-24T02:41:00.305Z,86.07
2022-12-24T02:43:34.513Z,82.90
2022-12-24T02:46:11.604Z,82.20
2022-12-24T02:48:44.820Z,82.13
2022-12-24T02:51:12.183Z,82.24
2022-12-24T02:53:40.211Z,83.01
2022-12-24T02:56:30.603Z,83.52
2022-12-24T02:59:33.633Z,83.49
2022-12-24T03:02:24.287Z,83.10
2022-12-24T03:05:04.034Z,82.93
2022-12-24T03:07:44.938Z,83.39
2022-12-24T03:10:23.758Z,82.09
2022-12-24T03:12:56.030Z,83.00
2022-12-24T03:15:27.323Z,82.19
2022-12-24T03:18:02.144Z,82.55
2022-12-24T03:20:37.340Z,82.40
2022-12-24T03:23:04.788Z,82.96
2022-12-24T03:25:34.744Z,82.70
2022-12-24T03:28:06.012Z,83.08
2022-12-24T03:30:33.503Z,82.60
2022-12-24T03:33:02.212Z,83.77
2022-12-24T03:35:29.010Z,84.38
2022-12-24T03:37:55.799Z,84.64
2022-12-24T03:40:22.633Z,84.68
2022-12-24T03:42:49.706Z,84.58
2022-12-24T03:45:16.751Z,84.76
2022-12-24T03:47:43.685Z,84.99
2022-12-24T03:50:11.843Z,85.41
2022-12-24T03:52:38.726Z,85.38
2022-12-24T03:55:06.850Z,86.22
2022-12-24T03:57:33.880Z,85.59
2022-12-24T04:00:00.684Z,86.23
2022-12-24T04:02:27.692Z,85.49
2022-12-24T04:04:54.773Z,86.20
2022-12-24T04:07:22.918Z,86.25
2022-12-24T04:09:49.873Z,86.01
2022-12-24T04:12:16.613Z,86.15
2022-12-24T04:14:43.567Z,85.64
2022-12-24T04:17:10.303Z,84.90
2022-12-24T04:19:37.101Z,85.23
2022-12-24T04:22:03.896Z,84.65
2022-12-24T04:24:32.022Z,85.46
2022-12-24T04:26:58.956Z,85.28
2022-12-24T04:29:25.820Z,84.36
2022-12-24T04:31:52.713Z,84.33
2022-12-24T04:34:19.735Z,83.79
2022-12-24T04:36:46.576Z,84.19
2022-12-24T04:39:13.560Z,83.22
2022-12-24T04:41:41.902Z,84.42
2022-12-24T04:44:09.908Z,84.66
2022-12-24T04:46:37.131Z,85.75
2022-12-24T04:49:03.915Z,85.50
2022-12-24T04:51:30.777Z,85.96
2022-12-24T04:53:58.271Z,86.30
2022-12-24T04:56:28.800Z,86.55
2022-12-24T04:58:59.099Z,86.00
2022-12-24T05:01:29.716Z,86.79
2022-12-24T05:03:56.987Z,87.00
2022-12-24T05:06:28.743Z,86.69
2022-12-24T05:08:56.736Z,86.84
2022-12-24T05:11:25.034Z,87.20
2022-12-24T05:13:52.372Z,86.97
2022-12-24T05:16:23.266Z,87.79
2022-12-24T05:18:51.059Z,87.71
2022-12-24T05:21:21.463Z,87.22
2022-12-24T05:23:48.803Z,88.02
2022-12-24T05:26:19.065Z,88.53
2022-12-24T05:28:46.047Z,88.51
2022-12-24T05:31:12.906Z,88.30
2022-12-24T05:33:41.079Z,88.62
2022-12-24T05:36:09.529Z,88.88
2022-12-24T05:38:36.412Z,88.84
2022-12-24T05:41:03.613Z,89.05
2022-12-24T05:43:30.528Z,88.91
2022-12-24T05:45:59.711Z,88.78
2022-12-24T05:48:27.093Z,87.86
2022-12-24T05:50:56.094Z,87.91
2022-12-24T05:53:23.067Z,87.70
2022-12-24T05:55:49.945Z,87.72
2022-12-24T05:58:17.052Z,87.67
2022-12-24T06:00:44.102Z,86.58
2022-12-24T06:03:11.140Z,86.12
2022-12-24T06:05:37.958Z,85.77
2022-12-24T06:08:06.440Z,85.41
2022-12-24T06:10:33.491Z,85.02
2022-12-24T06:13:00.206Z,84.93
2022-12-24T06:15:27.264Z,84.44
2022-12-24T06:17:54.149Z,84.70
2022-12-24T06:20:20.963Z,83.27
2022-12-24T06:22:47.716Z,83.35
2022-12-24T06:25:16.339Z,83.39
2022-12-24T06:27:43.324Z,83.16
2022-12-24T06:30:11.086Z,83.16
2022-12-24T06:32:38.245Z,81.88
2022-12-24T06:35:05.755Z,81.88
2022-12-24T06:37:32.661Z,81.34
2022-12-24T06:39:59.797Z,81.40
2022-12-24T06:42:27.840Z,81.28
2022-12-24T06:44:54.726Z,81.61
2022-12-24T06:47:21.496Z,81.26
2022-12-24T06:49:48.296Z,81.13
2022-12-24T06:52:15.133Z,81.00
2022-12-24T06:54:41.934Z,81.39
2022-12-24T06:57:08.707Z,81.19
2022-12-24T06:59:36.876Z,81.88
2022-12-24T07:02:04.032Z,81.87
2022-12-24T07:04:31.400Z,82.24
2022-12-24T07:06:58.284Z,81.61
2022-12-24T07:09:25.254Z,82.43
2022-12-24T07:11:52.141Z,82.46
2022-12-24T07:14:19.218Z,82.25
2022-12-24T07:16:47.624Z,82.96
2022-12-24T07:19:15.679Z,82.55
2022-12-24T07:21:42.432Z,82.38
2022-12-24T07:24:09.280Z,81.97
2022-12-24T07:26:36.126Z,81.59
2022-12-24T07:29:03.623Z,81.71
2022-12-24T07:31:30.356Z,81.81
2022-12-24T07:33:58.503Z,81.53
2022-12-24T07:36:25.670Z,80.55
2022-12-24T07:38:52.867Z,80.85
2022-12-24T07:41:19.705Z,80.58
2022-12-24T07:43:46.843Z,80.18
2022-12-24T07:46:14.041Z,80.10
2022-12-24T07:48:41.152Z,80.58
2022-12-24T07:51:09.412Z,80.39
2022-12-24T07:53:36.304Z,80.03
2022-12-24T07:56:07.631Z,79.66
2022-12-24T07:58:39.132Z,79.06
2022-12-24T08:01:06.148Z,78.36
2022-12-24T08:03:33.242Z,78.01
2022-12-24T08:06:00.295Z,78.29
2022-12-24T08:08:28.449Z,77.97
2022-12-24T08:11:01.377Z,78.58
2022-12-24T08:13:28.375Z,78.00
2022-12-24T08:15:55.259Z,77.87
2022-12-24T08:18:22.412Z,77.37
2022-12-24T08:20:49.250Z,77.47
2022-12-24T08:23:16.531Z,77.92
2022-12-24T08:25:48.064Z,77.58
2022-12-24T08:28:18.726Z,78.34
2022-12-24T08:30:48.031Z,77.36
2022-12-24T08:33:14.865Z,76.58
2022-12-24T08:35:46.562Z,77.20
2022-12-24T08:42:39.244Z,78.58
2022-12-24T08:45:18.915Z,78.39
2022-12-24T08:48:12.240Z,79.37
2022-12-24T08:51:44.599Z,77.88
2022-12-24T08:54:57.240Z,77.63
2022-12-24T08:57:25.144Z,76.26
2022-12-24T09:17:13.123Z,68.89
2022-12-24T09:19:40.098Z,71.80
2022-12-24T09:22:06.874Z,70.23
2022-12-24T09:24:35.598Z,70.86
2022-12-24T09:27:02.433Z,69.78
2022-12-24T09:29:29.685Z,69.54
2022-12-24T09:31:56.838Z,70.38
2022-12-24T09:34:30.141Z,69.99
2022-12-24T09:36:57.641Z,66.93
2022-12-24T09:39:24.404Z,69.59
2022-12-24T09:42:07.790Z,64.94
2022-12-24T09:44:43.980Z,66.74
2022-12-24T09:47:49.114Z,59.62
2022-12-24T09:51:21.698Z,55.52
2022-12-24T10:04:02.776Z,62.09
2022-12-24T10:06:40.106Z,65.71
2022-12-24T10:09:24.089Z,69.08
2022-12-24T10:12:00.838Z,71.93
2022-12-24T10:14:55.375Z,72.76
2022-12-24T10:17:45.391Z,72.39
2022-12-24T10:20:37.192Z,73.05
2022-12-24T10:23:18.341Z,73.82
2022-12-24T10:25:59.440Z,72.68
2022-12-24T10:28:55.123Z,72.31
2022-12-24T10:31:29.055Z,72.85
2022-12-24T10:34:01.936Z,72.83
2022-12-24T10:36:32.087Z,71.81
2022-12-24T10:38:59.761Z,72.14
2022-12-24T10:41:29.848Z,71.22
2022-12-24T10:43:59.267Z,71.29
2022-12-24T10:46:38.357Z,71.48
2022-12-24T10:49:12.225Z,71.57
2022-12-24T10:51:50.854Z,72.52
2022-12-24T10:54:26.550Z,72.53
2022-12-24T10:56:59.119Z,72.99
2022-12-24T10:59:29.715Z,72.75
2022-12-24T11:01:59.373Z,74.18
2022-12-24T11:04:29.820Z,75.35
2022-12-24T11:07:01.068Z,76.63
2022-12-24T11:09:32.701Z,77.14
2022-12-24T11:12:09.357Z,77.80
2022-12-24T11:14:39.049Z,77.74
2022-12-24T11:17:06.232Z,77.56
2022-12-24T11:19:38.890Z,77.51
2022-12-24T11:22:25.006Z,77.88
2022-12-24T11:25:04.327Z,77.56
2022-12-24T11:27:40.375Z,77.08
2022-12-24T11:30:29.185Z,77.46
2022-12-24T11:33:21.174Z,77.29
2022-12-24T11:35:58.123Z,77.95
2022-12-24T11:38:28.487Z,78.69
2022-12-24T11:41:03.982Z,78.76
2022-12-24T11:43:40.721Z,79.14
2022-12-24T11:46:37.583Z,78.86
2022-12-24T11:49:23.338Z,79.14
2022-12-24T11:52:21.973Z,78.54
2022-12-24T11:55:13.728Z,77.89
2022-12-24T11:57:55.963Z,77.80
2022-12-24T12:00:31.574Z,78.31
2022-12-24T12:03:30.857Z,77.87
2022-12-24T12:06:09.781Z,78.22
2022-12-24T12:08:40.873Z,78.30
2022-12-24T12:11:15.309Z,79.05
2022-12-24T12:13:46.635Z,80.79
2022-12-24T12:30:22.315Z,63.89
2022-12-24T12:32:58.959Z,61.77
2022-12-24T12:35:34.041Z,62.96
2022-12-24T12:38:05.227Z,65.25
2022-12-24T12:41:02.096Z,65.68
2022-12-24T12:44:00.035Z,68.62
2022-12-24T12:46:47.723Z,69.70
2022-12-24T12:49:32.989Z,72.26
2022-12-24T12:57:04.921Z,73.18
2022-12-24T12:59:38.555Z,73.21
2022-12-24T13:02:38.902Z,73.46
2022-12-24T13:06:11.344Z,74.58
2022-12-24T13:09:13.405Z,74.27
2022-12-24T13:12:03.848Z,73.12
2022-12-24T13:14:58.454Z,70.14
2022-12-24T13:18:01.889Z,66.26
2022-12-24T13:20:32.528Z,62.48
2022-12-24T13:23:08.560Z,63.04
2022-12-24T13:25:40.082Z,63.66
2022-12-24T13:28:30.397Z,64.50
2022-12-24T13:31:26.932Z,65.10
2022-12-24T13:33:58.408Z,65.47
2022-12-24T13:36:45.669Z,66.56
2022-12-24T13:39:19.830Z,66.72
2022-12-24T13:41:52.801Z,67.01
2022-12-24T13:44:29.396Z,66.99
2022-12-24T13:47:02.712Z,67.88
2022-12-24T13:49:37.143Z,68.81
2022-12-24T13:52:26.049Z,69.51
2022-12-24T13:55:13.290Z,70.16
2022-12-24T13:57:45.285Z,70.69
2022-12-24T14:00:39.211Z,71.04
2022-12-24T14:03:24.413Z,71.57
2022-12-24T14:05:58.243Z,72.13
2022-12-24T14:08:46.292Z,72.23
2022-12-24T14:11:17.099Z,74.41
2022-12-24T14:14:28.349Z,77.20
2022-12-24T14:16:59.858Z,78.90
2022-12-24T14:19:39.115Z,79.30
2022-12-24T14:22:28.596Z,79.18
2022-12-24T14:24:59.362Z,79.46
2022-12-24T14:27:39.377Z,80.04
2022-12-24T14:30:17.371Z,81.28
2022-12-24T14:32:44.425Z,82.18
2022-12-24T14:35:18.182Z,82.79
2022-12-24T14:37:51.888Z,83.16
2022-12-24T14:40:26.350Z,82.89
2022-12-24T14:43:05.798Z,82.71
2022-12-24T14:45:45.891Z,81.46
2022-12-24T14:48:27.168Z,82.03
2022-12-24T14:51:10.985Z,82.59
2022-12-24T14:54:05.912Z,83.70
2022-12-24T14:56:33.117Z,83.55
2022-12-24T14:59:00.280Z,81.37
2022-12-24T15:01:31.071Z,80.76
2022-12-24T15:04:05.339Z,81.79
2022-12-24T15:06:36.834Z,82.53
2022-12-24T15:09:10.486Z,83.71
2022-12-24T15:11:38.106Z,84.17
2022-12-24T15:14:05.973Z,84.43
2022-12-24T15:16:36.012Z,85.00
2022-12-24T15:19:06.750Z,85.38
2022-12-24T15:21:37.869Z,85.06
2022-12-24T15:24:23.952Z,84.62
2022-12-24T15:26:50.725Z,84.89
2022-12-24T15:29:23.599Z,85.55
2022-12-24T15:31:54.315Z,85.16
2022-12-24T15:34:34.767Z,84.38
2022-12-24T15:37:06.603Z,85.66
2022-12-24T15:39:35.006Z,86.45
2022-12-24T15:42:02.264Z,86.55
2022-12-24T15:44:35.289Z,86.41
2022-12-24T15:47:06.717Z,87.48
2022-12-24T15:49:35.191Z,87.63
2022-12-24T15:52:05.780Z,87.85
2022-12-24T15:54:34.982Z,86.41
2022-12-24T15:57:15.044Z,85.98
2022-12-24T15:59:42.873Z,86.83
2022-12-24T16:02:35.932Z,87.95
2022-12-24T16:05:36.241Z,88.15
2022-12-24T16:08:25.939Z,88.77
2022-12-24T16:11:11.550Z,88.30
2022-12-24T16:13:43.101Z,88.26
2022-12-24T16:16:15.278Z,87.37
2022-12-24T16:18:52.881Z,87.04
2022-12-24T16:21:25.052Z,87.40
2022-12-24T16:23:56.471Z,85.98
2022-12-24T16:26:24.673Z,87.20
2022-12-24T16:28:51.785Z,88.12
2022-12-24T16:31:29.526Z,89.14
2022-12-24T16:33:59.230Z,89.62
2022-12-24T16:36:26.316Z,89.52
2022-12-24T16:38:53.436Z,89.64
2022-12-24T16:41:20.238Z,89.23
2022-12-24T16:43:48.494Z,89.88
2022-12-24T16:46:16.069Z,90.11
2022-12-24T16:48:48.223Z,90.14
2022-12-24T16:51:15.138Z,89.44
2022-12-24T16:53:41.947Z,89.57
2022-12-24T16:56:09.019Z,88.63
2022-12-24T16:58:35.857Z,88.72
2022-12-24T17:01:09.315Z,87.04
2022-12-24T17:03:36.998Z,87.19
2022-12-24T17:06:07.035Z,87.03
2022-12-24T17:08:34.149Z,86.29
2022-12-24T17:11:00.879Z,87.44
2022-12-24T17:13:27.918Z,88.19
2022-12-24T17:15:54.745Z,89.29
2022-12-24T17:18:23.256Z,89.71
2022-12-24T17:20:59.165Z,89.54
2022-12-24T17:23:26.299Z,90.18
2022-12-24T17:25:53.197Z,90.52
2022-12-24T17:28:21.831Z,91.04
2022-12-24T17:30:49.578Z,91.36
2022-12-24T17:33:16.450Z,91.34
2022-12-24T17:35:44.982Z,90.81
2022-12-24T17:38:11.963Z,90.78
2022-12-24T17:40:39.069Z,90.63
2022-12-24T17:43:06.408Z,90.99
2022-12-24T17:45:33.370Z,90.40
2022-12-24T17:48:00.298Z,89.58
2022-12-24T17:50:27.789Z,88.69
2022-12-24T17:52:56.018Z,88.24
2022-12-24T17:55:23.200Z,87.30
2022-12-24T17:57:50.266Z,87.78
2022-12-24T18:00:18.546Z,87.68
2022-12-24T18:02:45.446Z,87.47
2022-12-24T18:05:13.337Z,88.36
2022-12-24T18:07:40.157Z,88.11
2022-12-24T18:10:10.452Z,88.20
2022-12-24T18:12:37.238Z,88.12
2022-12-24T18:15:05.795Z,88.46
2022-12-24T18:17:32.680Z,88.16
2022-12-24T18:19:59.935Z,88.89
2022-12-24T18:22:26.857Z,89.62
2022-12-24T18:24:53.692Z,89.18
2022-12-24T18:27:22.017Z,89.49
2022-12-24T18:29:49.608Z,89.59
2022-12-24T18:32:16.723Z,88.91
2022-12-24T18:34:43.542Z,89.12
2022-12-24T18:37:10.333Z,89.18
2022-12-24T18:39:38.278Z,88.83
2022-12-24T18:42:05.197Z,87.99
2022-12-24T18:44:33.632Z,87.91
2022-12-24T18:47:00.550Z,87.70
2022-12-24T18:49:27.520Z,87.64
2022-12-24T18:51:54.301Z,87.96
2022-12-24T18:54:21.199Z,87.95
2022-12-24T18:56:50.455Z,87.23
2022-12-24T18:59:17.409Z,87.69
2022-12-24T19:01:45.688Z,87.93
2022-12-24T19:04:12.613Z,87.97
2022-12-24T19:06:39.486Z,88.73
2022-12-24T19:09:06.383Z,88.68
2022-12-24T19:11:36.019Z,89.26
2022-12-24T19:14:06.254Z,89.26
2022-12-24T19:16:36.720Z,88.87
2022-12-24T19:19:08.588Z,88.67
2022-12-24T19:21:35.805Z,88.53
2022-12-24T19:24:03.681Z,87.98
2022-12-24T19:26:30.962Z,88.79
2022-12-24T19:28:57.757Z,89.07
2022-12-24T19:31:25.827Z,89.16
2022-12-24T19:33:56.146Z,88.58
2022-12-24T19:36:29.633Z,88.61
2022-12-24T19:38:58.209Z,88.69
2022-12-24T19:41:27.185Z,88.03
2022-12-24T19:43:58.571Z,88.09
2022-12-24T19:46:27.957Z,88.19
2022-12-24T19:48:59.127Z,88.18
2022-12-24T19:51:29.258Z,87.27
2022-12-24T19:53:59.059Z,87.43
2022-12-24T19:56:30.534Z,87.67
2022-12-24T19:58:59.032Z,88.44
2022-12-24T20:01:29.257Z,87.72
2022-12-24T20:03:56.821Z,87.73
2022-12-24T20:06:28.155Z,87.82
2022-12-24T20:08:58.946Z,87.56
2022-12-24T20:11:25.823Z,87.32
2022-12-24T20:13:57.175Z,88.07
2022-12-24T20:16:24.907Z,87.56
2022-12-24T20:18:52.552Z,87.21
2022-12-24T20:21:20.068Z,87.84
2022-12-24T20:23:48.687Z,87.88
2022-12-24T20:26:20.216Z,88.23
2022-12-24T20:28:48.081Z,88.30
2022-12-24T20:31:20.357Z,87.72
2022-12-24T20:33:48.118Z,87.70
2022-12-24T20:36:18.177Z,87.71
2022-12-24T20:38:45.925Z,87.42
2022-12-24T20:41:17.975Z,87.33
2022-12-24T20:43:48.541Z,87.21
2022-12-24T20:46:19.456Z,88.07
2022-12-24T20:48:53.302Z,89.12
2022-12-24T20:51:28.136Z,88.40
2022-12-24T20:54:01.646Z,87.94
2022-12-24T20:56:37.399Z,87.62
2022-12-24T20:59:12.240Z,87.61
2022-12-24T21:01:42.414Z,87.58
2022-12-24T21:04:12.455Z,88.04
2022-12-24T21:06:39.579Z,88.09
2022-12-24T21:09:06.610Z,88.34
2022-12-24T21:11:35.302Z,88.33
2022-12-24T21:14:02.946Z,88.11
2022-12-24T21:16:31.193Z,88.22
2022-12-24T21:18:58.619Z,87.31
2022-12-24T21:21:25.632Z,87.79
2022-12-24T21:23:54.272Z,87.85
2022-12-24T21:26:21.246Z,87.42
2022-12-24T21:28:49.707Z,87.08
2022-12-24T21:31:17.898Z,87.76
2022-12-24T21:33:45.935Z,87.44
2022-12-24T21:36:14.818Z,87.14
2022-12-24T21:38:42.579Z,87.38
2022-12-24T21:41:12.576Z,87.34
2022-12-24T21:43:40.077Z,87.30
2022-12-24T21:46:10.029Z,88.76
2022-12-24T21:48:37.859Z,89.62
2022-12-24T21:51:05.042Z,90.22
2022-12-24T21:53:31.874Z,90.47
2022-12-24T21:55:58.699Z,90.18
2022-12-24T21:58:25.537Z,89.86
2022-12-24T22:00:52.443Z,89.74
2022-12-24T22:03:20.907Z,89.10
2022-12-24T22:05:47.802Z,88.72
2022-12-24T22:08:14.647Z,88.97
2022-12-24T22:10:41.912Z,88.54
2022-12-24T22:13:09.030Z,89.53
2022-12-24T22:15:42.971Z,89.66
2022-12-24T22:18:10.218Z,87.97
2022-12-24T22:20:39.369Z,88.31
2022-12-24T22:23:06.904Z,87.50
2022-12-24T22:25:35.226Z,87.46
2022-12-24T22:28:02.617Z,86.83
2022-12-24T22:30:29.816Z,86.76
2022-12-24T22:32:57.404Z,87.17
2022-12-24T22:35:24.700Z,87.43
2022-12-24T22:37:57.765Z,87.20
2022-12-24T22:40:30.837Z,87.01
2022-12-24T22:42:57.675Z,87.02
2022-12-24T22:45:24.430Z,87.34
2022-12-24T22:47:51.433Z,87.64
2022-12-24T22:50:18.787Z,87.72
2022-12-24T22:52:45.697Z,88.16
2022-12-24T22:55:14.147Z,88.34
2022-12-24T22:57:43.316Z,88.12
2022-12-24T23:00:35.244Z,87.39
2022-12-24T23:03:02.501Z,87.50
2022-12-24T23:05:29.355Z,87.83
2022-12-24T23:07:56.530Z,87.13
2022-12-24T23:10:24.854Z,87.08
2022-12-24T23:12:53.552Z,86.70
2022-12-24T23:15:20.395Z,86.70
2022-12-24T23:17:48.815Z,86.90
2022-12-24T23:20:16.065Z,87.07
2022-12-24T23:22:42.884Z,86.64
2022-12-24T23:25:16.170Z,87.27
2022-12-24T23:27:48.940Z,86.78
2022-12-24T23:30:19.564Z,86.82
2022-12-24T23:32:56.104Z,87.29
2022-12-24T23:35:34.271Z,87.41
2022-12-24T23:38:06.716Z,87.23
2022-12-24T23:40:33.731Z,87.47
2022-12-24T23:43:01.926Z,87.87
2022-12-24T23:45:28.814Z,87.83
2022-12-24T23:47:55.585Z,87.79
2022-12-24T23:50:33.133Z,88.00
2022-12-24T23:58:03.371Z,88.77
